Terminal Aerodrome Forecast
Issued by NWS

Home | Current Version | Previous Version | Text Only | Print | Product List | Glossary On
Versions: 1 2 3 4 5 6 7 8 9 10 11 12
000
FTUS42 TJSJ 261133
TAFJMZ
TAF
TJMZ 261133Z 2612/2712 VRB04KT P6SM FEW030
     FM261530 27010KT P6SM SCT025 SCT040
     FM261730 26007KT P6SM VCSH BKN040
     FM262200 12003KT P6SM FEW040
      AMD NOT SKED=

USA.gov is the U.S. government's official web portal to all federal, state and local government web resources and services.